VIDP/DEL METAR and TAF weather

Enter ICAO airport designator
Station Type Date Time Source
VIDP METAR 2018/12/15 04:00 UTC NOAA

VIDP 150400Z 27006KT 1000 R28/1700 R29/2000 BR NSC 11/09 Q1023 NOSIG


Station Type Date Time Source
VIDP Decoded METAR 2018/12/15 04:00 UTC NOAA

New Delhi / Palam, India (VIDP) 28-34N 077-07E 233M
Dec 14, 2018 - 11:00 PM EST / 2018.12.15 0400 UTC
Wind: from the W (270 degrees) at 7 MPH (6 KT):0
Visibility: less than 1 mile:0
Weather: mist
Temperature: 51 F (11 C)
Dew Point: 48 F (9 C)
Relative Humidity: 87%
Pressure (altimeter): 30.21 in. Hg (1023 hPa)
ob: VIDP 150400Z 27006KT 1000 R28/1700 R29/2000 BR NSC 11/09 Q1023 NOSIG
cycle: 4

Station Type Date Time Source
VIDP TAF 2018/12/14 18:06 UTC NOAA

TAF VIDP 141700Z 1418/1524 26003KT 2500 BR NSC
BECMG 1423/1424 0300 FG FEW100
BECMG 1503/1505 29005KT 0800 MIFG
BECMG 1507/1509 29008KT 3500 HZ NSC
BECMG 1513/1515 26005KT 2500 HZ BR
BECMG 1521/1522 29003KT 1000 BR


Example: see airport list